sensor_id;sensor_type;location;lat;lon;timestamp;temperature;humidity
1129;DHT22;553;51.038;7.216;2023-03-18T00:00:00;11.10;99.90
1129;DHT22;553;51.038;7.216;2023-03-18T00:02:32;11.10;99.90
1129;DHT22;553;51.038;7.216;2023-03-18T00:04:58;11.00;99.90
1129;DHT22;553;51.038;7.216;2023-03-18T00:07:25;11.00;99.90
1129;DHT22;553;51.038;7.216;2023-03-18T00:09:52;11.00;99.90
1129;DHT22;553;51.038;7.216;2023-03-18T00:12:19;10.90;99.90
1129;DHT22;553;51.038;7.216;2023-03-18T00:14:47;11.00;99.90
1129;DHT22;553;51.038;7.216;2023-03-18T00:17:14;11.00;99.90
1129;DHT22;553;51.038;7.216;2023-03-18T00:19:40;11.10;99.90
1129;DHT22;553;51.038;7.216;2023-03-18T00:22:08;11.10;99.90
1129;DHT22;553;51.038;7.216;2023-03-18T00:24:36;11.10;99.90
1129;DHT22;553;51.038;7.216;2023-03-18T00:27:03;11.00;99.90
1129;DHT22;553;51.038;7.216;2023-03-18T00:29:30;11.10;99.90
1129;DHT22;553;51.038;7.216;2023-03-18T00:31:57;11.00;99.90
1129;DHT22;553;51.038;7.216;2023-03-18T00:34:25;11.00;99.90
1129;DHT22;553;51.038;7.216;2023-03-18T00:36:52;11.00;99.90
1129;DHT22;553;51.038;7.216;2023-03-18T00:39:23;11.00;99.90
1129;DHT22;553;51.038;7.216;2023-03-18T00:41:55;10.90;99.90
1129;DHT22;553;51.038;7.216;2023-03-18T00:44:23;11.00;99.90
1129;DHT22;553;51.038;7.216;2023-03-18T00:46:53;11.00;99.90
1129;DHT22;553;51.038;7.216;2023-03-18T00:49:20;11.00;99.90
1129;DHT22;553;51.038;7.216;2023-03-18T00:51:46;11.10;99.90
1129;DHT22;553;51.038;7.216;2023-03-18T00:54:13;11.10;99.90
1129;DHT22;553;51.038;7.216;2023-03-18T00:56:43;11.20;99.90
1129;DHT22;553;51.038;7.216;2023-03-18T00:59:10;11.20;99.90
1129;DHT22;553;51.038;7.216;2023-03-18T01:01:37;11.20;99.90
1129;DHT22;553;51.038;7.216;2023-03-18T01:04:05;11.10;99.90
1129;DHT22;553;51.038;7.216;2023-03-18T01:06:34;11.10;99.90
1129;DHT22;553;51.038;7.216;2023-03-18T01:09:05;11.10;99.90
1129;DHT22;553;51.038;7.216;2023-03-18T01:11:32;11.10;99.90
1129;DHT22;553;51.038;7.216;2023-03-18T01:13:59;11.10;99.90
1129;DHT22;553;51.038;7.216;2023-03-18T01:16:26;11.00;99.90
1129;DHT22;553;51.038;7.216;2023-03-18T01:18:53;11.10;99.90
1129;DHT22;553;51.038;7.216;2023-03-18T01:21:20;11.00;99.90
1129;DHT22;553;51.038;7.216;2023-03-18T01:23:52;10.90;99.90
1129;DHT22;553;51.038;7.216;2023-03-18T01:26:20;10.80;99.90
1129;DHT22;553;51.038;7.216;2023-03-18T01:28:47;10.90;99.90
1129;DHT22;553;51.038;7.216;2023-03-18T01:31:14;11.00;99.90
1129;DHT22;553;51.038;7.216;2023-03-18T01:33:44;10.90;99.90
1129;DHT22;553;51.038;7.216;2023-03-18T01:36:10;10.90;99.90
1129;DHT22;553;51.038;7.216;2023-03-18T01:38:38;10.90;99.90
1129;DHT22;553;51.038;7.216;2023-03-18T01:41:12;10.90;99.90
1129;DHT22;553;51.038;7.216;2023-03-18T01:43:41;10.90;99.90
1129;DHT22;553;51.038;7.216;2023-03-18T01:46:34;10.90;99.90
1129;DHT22;553;51.038;7.216;2023-03-18T01:49:08;10.90;99.90
1129;DHT22;553;51.038;7.216;2023-03-18T01:51:36;10.90;99.90
1129;DHT22;553;51.038;7.216;2023-03-18T01:54:05;10.80;99.90
1129;DHT22;553;51.038;7.216;2023-03-18T01:56:34;10.80;99.90
1129;DHT22;553;51.038;7.216;2023-03-18T01:59:04;10.90;99.90
1129;DHT22;553;51.038;7.216;2023-03-18T02:01:47;10.90;99.90
1129;DHT22;553;51.038;7.216;2023-03-18T02:04:15;11.00;99.90
1129;DHT22;553;51.038;7.216;2023-03-18T02:06:43;11.00;99.90
1129;DHT22;553;51.038;7.216;2023-03-18T02:09:10;11.00;99.90
1129;DHT22;553;51.038;7.216;2023-03-18T02:11:42;11.00;99.90
1129;DHT22;553;51.038;7.216;2023-03-18T02:14:13;11.00;99.90
1129;DHT22;553;51.038;7.216;2023-03-18T02:16:46;10.90;99.90
1129;DHT22;553;51.038;7.216;2023-03-18T02:19:35;10.90;99.90
1129;DHT22;553;51.038;7.216;2023-03-18T02:26:07;10.90;99.90
1129;DHT22;553;51.038;7.216;2023-03-18T02:28:06;10.90;99.90
1129;DHT22;553;51.038;7.216;2023-03-18T02:30:45;10.80;99.90
1129;DHT22;553;51.038;7.216;2023-03-18T02:33:14;10.80;99.90
1129;DHT22;553;51.038;7.216;2023-03-18T02:35:45;10.70;99.90
1129;DHT22;553;51.038;7.216;2023-03-18T02:38:14;10.80;99.90
1129;DHT22;553;51.038;7.216;2023-03-18T02:40:42;10.70;99.90
1129;DHT22;553;51.038;7.216;2023-03-18T02:43:28;10.80;99.90
1129;DHT22;553;51.038;7.216;2023-03-18T02:46:22;10.80;99.90
1129;DHT22;553;51.038;7.216;2023-03-18T02:48:52;10.80;99.90
1129;DHT22;553;51.038;7.216;2023-03-18T02:51:21;10.80;99.90
1129;DHT22;553;51.038;7.216;2023-03-18T02:53:48;10.90;99.90
1129;DHT22;553;51.038;7.216;2023-03-18T02:56:16;10.90;99.90
1129;DHT22;553;51.038;7.216;2023-03-18T02:58:43;10.90;99.90
1129;DHT22;553;51.038;7.216;2023-03-18T03:01:11;10.90;99.90
1129;DHT22;553;51.038;7.216;2023-03-18T03:03:38;10.80;99.90
1129;DHT22;553;51.038;7.216;2023-03-18T03:06:06;10.80;99.90
1129;DHT22;553;51.038;7.216;2023-03-18T03:08:33;10.90;99.90
1129;DHT22;553;51.038;7.216;2023-03-18T03:11:03;10.90;99.90
1129;DHT22;553;51.038;7.216;2023-03-18T03:13:33;10.80;99.90
1129;DHT22;553;51.038;7.216;2023-03-18T03:16:00;10.80;99.90
1129;DHT22;553;51.038;7.216;2023-03-18T03:18:27;10.80;99.90
1129;DHT22;553;51.038;7.216;2023-03-18T03:20:55;10.80;99.90
1129;DHT22;553;51.038;7.216;2023-03-18T03:23:22;10.70;99.90
1129;DHT22;553;51.038;7.216;2023-03-18T03:25:49;10.70;99.90
1129;DHT22;553;51.038;7.216;2023-03-18T03:28:18;10.70;99.90
1129;DHT22;553;51.038;7.216;2023-03-18T03:30:45;10.60;99.90
1129;DHT22;553;51.038;7.216;2023-03-18T03:33:13;10.50;99.90
1129;DHT22;553;51.038;7.216;2023-03-18T03:35:40;10.50;99.90
1129;DHT22;553;51.038;7.216;2023-03-18T03:38:07;10.50;99.90
1129;DHT22;553;51.038;7.216;2023-03-18T03:40:35;10.60;99.90
1129;DHT22;553;51.038;7.216;2023-03-18T03:43:02;10.50;99.90
1129;DHT22;553;51.038;7.216;2023-03-18T03:45:29;10.50;99.90
1129;DHT22;553;51.038;7.216;2023-03-18T03:47:56;10.50;99.90
1129;DHT22;553;51.038;7.216;2023-03-18T03:50:23;10.50;99.90
1129;DHT22;553;51.038;7.216;2023-03-18T03:52:50;10.50;99.90
1129;DHT22;553;51.038;7.216;2023-03-18T03:55:18;10.40;99.90
1129;DHT22;553;51.038;7.216;2023-03-18T03:57:46;10.40;99.90
1129;DHT22;553;51.038;7.216;2023-03-18T04:00:16;10.40;99.90
1129;DHT22;553;51.038;7.216;2023-03-18T04:02:48;10.40;99.90
1129;DHT22;553;51.038;7.216;2023-03-18T04:05:19;10.30;99.90
1129;DHT22;553;51.038;7.216;2023-03-18T04:07:46;10.20;99.90
1129;DHT22;553;51.038;7.216;2023-03-18T04:10:16;10.10;99.90
1129;DHT22;553;51.038;7.216;2023-03-18T04:12:43;10.10;99.90
1129;DHT22;553;51.038;7.216;2023-03-18T04:15:15;10.10;99.90
1129;DHT22;553;51.038;7.216;2023-03-18T04:17:44;10.10;99.90
1129;DHT22;553;51.038;7.216;2023-03-18T04:20:15;10.10;99.90
1129;DHT22;553;51.038;7.216;2023-03-18T04:22:43;10.10;99.90
1129;DHT22;553;51.038;7.216;2023-03-18T04:25:11;10.10;99.90
1129;DHT22;553;51.038;7.216;2023-03-18T04:27:40;10.10;99.90
1129;DHT22;553;51.038;7.216;2023-03-18T04:30:10;10.00;99.90
1129;DHT22;553;51.038;7.216;2023-03-18T04:32:54;10.00;99.90
1129;DHT22;553;51.038;7.216;2023-03-18T04:35:22;10.00;99.90
1129;DHT22;553;51.038;7.216;2023-03-18T04:37:50;10.00;99.90
1129;DHT22;553;51.038;7.216;2023-03-18T04:40:17;10.00;99.90
1129;DHT22;553;51.038;7.216;2023-03-18T04:42:45;10.00;99.90
1129;DHT22;553;51.038;7.216;2023-03-18T04:45:16;10.10;99.90
1129;DHT22;553;51.038;7.216;2023-03-18T04:47:43;10.00;99.90
1129;DHT22;553;51.038;7.216;2023-03-18T04:50:12;9.90;99.90
1129;DHT22;553;51.038;7.216;2023-03-18T04:52:41;9.90;99.90
1129;DHT22;553;51.038;7.216;2023-03-18T04:55:11;10.00;99.90
1129;DHT22;553;51.038;7.216;2023-03-18T04:57:39;10.00;99.90
1129;DHT22;553;51.038;7.216;2023-03-18T05:00:14;9.90;99.90
1129;DHT22;553;51.038;7.216;2023-03-18T05:02:44;9.90;99.90
1129;DHT22;553;51.038;7.216;2023-03-18T05:05:11;9.90;99.90
1129;DHT22;553;51.038;7.216;2023-03-18T05:07:43;9.90;99.90
1129;DHT22;553;51.038;7.216;2023-03-18T05:10:13;9.80;99.90
1129;DHT22;553;51.038;7.216;2023-03-18T05:12:40;9.80;99.90
1129;DHT22;553;51.038;7.216;2023-03-18T05:15:09;9.80;99.90
1129;DHT22;553;51.038;7.216;2023-03-18T05:17:42;9.80;99.90
1129;DHT22;553;51.038;7.216;2023-03-18T05:20:09;9.80;99.90
1129;DHT22;553;51.038;7.216;2023-03-18T05:22:36;9.90;99.90
1129;DHT22;553;51.038;7.216;2023-03-18T05:25:11;9.80;99.90
1129;DHT22;553;51.038;7.216;2023-03-18T05:27:39;9.70;99.90
1129;DHT22;553;51.038;7.216;2023-03-18T05:30:13;9.70;99.90
1129;DHT22;553;51.038;7.216;2023-03-18T05:32:44;9.70;99.90
1129;DHT22;553;51.038;7.216;2023-03-18T05:35:12;9.70;99.90
1129;DHT22;553;51.038;7.216;2023-03-18T05:37:47;9.70;99.90
1129;DHT22;553;51.038;7.216;2023-03-18T05:40:15;9.70;99.90
1129;DHT22;553;51.038;7.216;2023-03-18T05:42:55;9.70;99.90
1129;DHT22;553;51.038;7.216;2023-03-18T05:45:31;9.70;99.90
1129;DHT22;553;51.038;7.216;2023-03-18T05:47:59;9.70;99.90
1129;DHT22;553;51.038;7.216;2023-03-18T05:53:00;9.80;99.90
1129;DHT22;553;51.038;7.216;2023-03-18T05:55:32;9.80;99.90
1129;DHT22;553;51.038;7.216;2023-03-18T05:58:00;9.80;99.90
1129;DHT22;553;51.038;7.216;2023-03-18T06:00:28;9.80;99.90
1129;DHT22;553;51.038;7.216;2023-03-18T06:02:58;9.80;99.90
1129;DHT22;553;51.038;7.216;2023-03-18T06:05:26;9.90;99.90
1129;DHT22;553;51.038;7.216;2023-03-18T06:07:53;10.00;99.90
1129;DHT22;553;51.038;7.216;2023-03-18T06:10:21;10.00;99.90
1129;DHT22;553;51.038;7.216;2023-03-18T06:12:49;10.00;99.90
1129;DHT22;553;51.038;7.216;2023-03-18T06:15:16;10.10;99.90
1129;DHT22;553;51.038;7.216;2023-03-18T06:17:45;10.20;99.90
1129;DHT22;553;51.038;7.216;2023-03-18T06:20:13;10.30;99.90
1129;DHT22;553;51.038;7.216;2023-03-18T06:22:41;10.30;99.90
1129;DHT22;553;51.038;7.216;2023-03-18T06:25:09;10.30;99.90
1129;DHT22;553;51.038;7.216;2023-03-18T06:27:38;10.30;99.90
1129;DHT22;553;51.038;7.216;2023-03-18T06:30:05;10.40;99.90
1129;DHT22;553;51.038;7.216;2023-03-18T06:32:34;10.30;99.90
1129;DHT22;553;51.038;7.216;2023-03-18T06:35:01;10.40;99.90
1129;DHT22;553;51.038;7.216;2023-03-18T06:37:30;10.40;99.90
1129;DHT22;553;51.038;7.216;2023-03-18T06:39:57;10.30;99.90
1129;DHT22;553;51.038;7.216;2023-03-18T06:42:23;10.30;99.90
1129;DHT22;553;51.038;7.216;2023-03-18T06:45:06;10.30;99.90
1129;DHT22;553;51.038;7.216;2023-03-18T06:48:03;10.30;99.90
1129;DHT22;553;51.038;7.216;2023-03-18T06:50:33;10.40;99.90
1129;DHT22;553;51.038;7.216;2023-03-18T06:53:00;10.40;99.90
1129;DHT22;553;51.038;7.216;2023-03-18T06:55:30;10.40;99.90
1129;DHT22;553;51.038;7.216;2023-03-18T06:57:58;10.40;99.90
1129;DHT22;553;51.038;7.216;2023-03-18T07:00:33;10.40;99.90
1129;DHT22;553;51.038;7.216;2023-03-18T07:03:00;10.50;99.90
1129;DHT22;553;51.038;7.216;2023-03-18T07:05:27;10.50;99.90
1129;DHT22;553;51.038;7.216;2023-03-18T07:07:54;10.60;99.90
1129;DHT22;553;51.038;7.216;2023-03-18T07:10:26;10.60;99.90
1129;DHT22;553;51.038;7.216;2023-03-18T07:12:58;10.60;99.90
1129;DHT22;553;51.038;7.216;2023-03-18T07:15:26;10.70;99.90
1129;DHT22;553;51.038;7.216;2023-03-18T07:17:55;10.80;99.90
1129;DHT22;553;51.038;7.216;2023-03-18T07:20:22;10.80;99.90
1129;DHT22;553;51.038;7.216;2023-03-18T07:22:49;10.80;99.90
1129;DHT22;553;51.038;7.216;2023-03-18T07:25:17;10.90;99.90
1129;DHT22;553;51.038;7.216;2023-03-18T07:27:43;11.00;99.90
1129;DHT22;553;51.038;7.216;2023-03-18T07:30:11;11.10;99.90
1129;DHT22;553;51.038;7.216;2023-03-18T07:32:39;11.10;99.90
1129;DHT22;553;51.038;7.216;2023-03-18T07:35:06;11.20;99.90
1129;DHT22;553;51.038;7.216;2023-03-18T07:37:33;11.30;99.90
1129;DHT22;553;51.038;7.216;2023-03-18T07:40:01;11.30;99.90
1129;DHT22;553;51.038;7.216;2023-03-18T07:42:27;11.30;99.90
1129;DHT22;553;51.038;7.216;2023-03-18T07:44:55;11.40;99.90
1129;DHT22;553;51.038;7.216;2023-03-18T07:47:23;11.50;99.90
1129;DHT22;553;51.038;7.216;2023-03-18T07:49:50;11.50;99.90
1129;DHT22;553;51.038;7.216;2023-03-18T07:52:17;11.60;99.90
1129;DHT22;553;51.038;7.216;2023-03-18T07:54:44;11.60;99.90
1129;DHT22;553;51.038;7.216;2023-03-18T07:57:11;11.60;99.90
1129;DHT22;553;51.038;7.216;2023-03-18T07:59:38;11.60;99.90
1129;DHT22;553;51.038;7.216;2023-03-18T08:02:05;11.60;99.90
1129;DHT22;553;51.038;7.216;2023-03-18T08:04:34;11.60;99.90
1129;DHT22;553;51.038;7.216;2023-03-18T08:07:01;11.60;99.90
1129;DHT22;553;51.038;7.216;2023-03-18T08:09:28;11.70;99.90
1129;DHT22;553;51.038;7.216;2023-03-18T08:11:55;11.70;99.90
1129;DHT22;553;51.038;7.216;2023-03-18T08:14:21;11.70;99.90
1129;DHT22;553;51.038;7.216;2023-03-18T08:16:48;11.90;99.90
1129;DHT22;553;51.038;7.216;2023-03-18T08:19:15;12.00;99.90
1129;DHT22;553;51.038;7.216;2023-03-18T08:21:42;12.10;99.90
1129;DHT22;553;51.038;7.216;2023-03-18T08:24:09;12.20;99.90
1129;DHT22;553;51.038;7.216;2023-03-18T08:26:36;12.40;99.90
1129;DHT22;553;51.038;7.216;2023-03-18T08:29:03;12.40;99.90
1129;DHT22;553;51.038;7.216;2023-03-18T08:31:30;12.70;99.90
1129;DHT22;553;51.038;7.216;2023-03-18T08:33:57;12.90;99.90
1129;DHT22;553;51.038;7.216;2023-03-18T08:36:25;13.10;99.90
1129;DHT22;553;51.038;7.216;2023-03-18T08:38:52;13.30;99.90
1129;DHT22;553;51.038;7.216;2023-03-18T08:41:19;13.40;99.90
1129;DHT22;553;51.038;7.216;2023-03-18T08:43:46;13.60;99.90
1129;DHT22;553;51.038;7.216;2023-03-18T08:46:12;13.80;99.90
1129;DHT22;553;51.038;7.216;2023-03-18T08:48:40;13.90;99.90
1129;DHT22;553;51.038;7.216;2023-03-18T08:51:07;14.10;99.90
1129;DHT22;553;51.038;7.216;2023-03-18T08:53:34;14.50;99.90
1129;DHT22;553;51.038;7.216;2023-03-18T08:56:01;14.60;99.90
1129;DHT22;553;51.038;7.216;2023-03-18T08:58:28;14.80;99.90
1129;DHT22;553;51.038;7.216;2023-03-18T09:00:55;14.90;99.90
1129;DHT22;553;51.038;7.216;2023-03-18T09:03:22;15.00;99.60
1129;DHT22;553;51.038;7.216;2023-03-18T09:05:51;15.10;99.20
1129;DHT22;553;51.038;7.216;2023-03-18T09:08:21;15.20;99.70
1129;DHT22;553;51.038;7.216;2023-03-18T09:10:52;15.30;97.40
1129;DHT22;553;51.038;7.216;2023-03-18T09:13:20;15.10;98.00
1129;DHT22;553;51.038;7.216;2023-03-18T09:15:47;15.20;97.50
1129;DHT22;553;51.038;7.216;2023-03-18T09:18:15;15.30;98.00
1129;DHT22;553;51.038;7.216;2023-03-18T09:20:41;15.00;97.50
1129;DHT22;553;51.038;7.216;2023-03-18T09:23:10;15.00;97.80
1129;DHT22;553;51.038;7.216;2023-03-18T09:25:38;14.90;97.60
1129;DHT22;553;51.038;7.216;2023-03-18T09:28:05;14.90;99.50
1129;DHT22;553;51.038;7.216;2023-03-18T09:30:32;15.00;98.40
1129;DHT22;553;51.038;7.216;2023-03-18T09:32:59;14.90;98.10
1129;DHT22;553;51.038;7.216;2023-03-18T09:35:27;15.00;99.20
1129;DHT22;553;51.038;7.216;2023-03-18T09:37:57;15.00;98.00
1129;DHT22;553;51.038;7.216;2023-03-18T09:40:33;15.10;97.90
1129;DHT22;553;51.038;7.216;2023-03-18T09:43:28;15.20;98.30
1129;DHT22;553;51.038;7.216;2023-03-18T09:46:09;15.20;97.20
1129;DHT22;553;51.038;7.216;2023-03-18T09:48:54;14.90;97.40
1129;DHT22;553;51.038;7.216;2023-03-18T09:57:19;15.40;96.70
1129;DHT22;553;51.038;7.216;2023-03-18T09:59:57;15.40;96.90
1129;DHT22;553;51.038;7.216;2023-03-18T10:02:31;15.70;96.70
1129;DHT22;553;51.038;7.216;2023-03-18T10:05:04;15.80;94.80
1129;DHT22;553;51.038;7.216;2023-03-18T10:07:38;15.90;93.80
1129;DHT22;553;51.038;7.216;2023-03-18T10:10:29;15.60;93.20
1129;DHT22;553;51.038;7.216;2023-03-18T10:13:22;15.40;94.90
1129;DHT22;553;51.038;7.216;2023-03-18T10:15:55;15.50;95.20
1129;DHT22;553;51.038;7.216;2023-03-18T10:18:31;15.80;95.10
1129;DHT22;553;51.038;7.216;2023-03-18T10:21:36;16.20;94.10
1129;DHT22;553;51.038;7.216;2023-03-18T10:40:20;16.50;93.30
1129;DHT22;553;51.038;7.216;2023-03-18T10:42:47;16.30;91.60
1129;DHT22;553;51.038;7.216;2023-03-18T10:48:17;16.50;91.10
1129;DHT22;553;51.038;7.216;2023-03-18T10:51:08;16.80;91.10
1129;DHT22;553;51.038;7.216;2023-03-18T10:53:45;16.80;90.10
1129;DHT22;553;51.038;7.216;2023-03-18T10:56:14;16.70;91.10
1129;DHT22;553;51.038;7.216;2023-03-18T10:58:42;16.70;90.60
1129;DHT22;553;51.038;7.216;2023-03-18T11:01:11;16.90;89.60
1129;DHT22;553;51.038;7.216;2023-03-18T11:03:57;16.90;90.60
1129;DHT22;553;51.038;7.216;2023-03-18T11:06:40;16.90;89.80
1129;DHT22;553;51.038;7.216;2023-03-18T11:09:10;17.10;90.50
1129;DHT22;553;51.038;7.216;2023-03-18T11:11:45;17.40;89.60
1129;DHT22;553;51.038;7.216;2023-03-18T11:14:18;17.60;87.40
1129;DHT22;553;51.038;7.216;2023-03-18T11:16:55;17.40;87.90
1129;DHT22;553;51.038;7.216;2023-03-18T11:22:18;17.40;89.40
1129;DHT22;553;51.038;7.216;2023-03-18T11:25:19;17.30;88.10
1129;DHT22;553;51.038;7.216;2023-03-18T11:27:51;17.50;86.90
1129;DHT22;553;51.038;7.216;2023-03-18T11:30:27;17.70;87.00
1129;DHT22;553;51.038;7.216;2023-03-18T11:35:50;17.40;87.50
1129;DHT22;553;51.038;7.216;2023-03-18T11:38:27;17.80;87.20
1129;DHT22;553;51.038;7.216;2023-03-18T11:44:02;17.90;87.00
1129;DHT22;553;51.038;7.216;2023-03-18T11:46:33;18.00;85.60
1129;DHT22;553;51.038;7.216;2023-03-18T11:49:02;18.00;84.70
1129;DHT22;553;51.038;7.216;2023-03-18T11:58:05;17.90;86.00
1129;DHT22;553;51.038;7.216;2023-03-18T12:00:20;17.80;85.60
1129;DHT22;553;51.038;7.216;2023-03-18T12:08:49;17.80;84.80
1129;DHT22;553;51.038;7.216;2023-03-18T12:14:29;18.00;83.00
1129;DHT22;553;51.038;7.216;2023-03-18T12:20:10;17.80;82.90
1129;DHT22;553;51.038;7.216;2023-03-18T12:22:56;17.90;84.20
1129;DHT22;553;51.038;7.216;2023-03-18T12:28:27;17.70;84.80
1129;DHT22;553;51.038;7.216;2023-03-18T12:33:49;17.60;84.00
1129;DHT22;553;51.038;7.216;2023-03-18T12:36:49;17.60;85.50
1129;DHT22;553;51.038;7.216;2023-03-18T12:39:36;17.70;84.10
1129;DHT22;553;51.038;7.216;2023-03-18T12:42:38;17.90;81.30
1129;DHT22;553;51.038;7.216;2023-03-18T12:45:14;17.90;81.60
1129;DHT22;553;51.038;7.216;2023-03-18T12:47:56;17.90;81.80
1129;DHT22;553;51.038;7.216;2023-03-18T12:53:35;17.90;82.00
1129;DHT22;553;51.038;7.216;2023-03-18T12:56:26;18.00;82.90
1129;DHT22;553;51.038;7.216;2023-03-18T12:59:07;18.10;83.30
1129;DHT22;553;51.038;7.216;2023-03-18T13:01:56;18.30;82.00
1129;DHT22;553;51.038;7.216;2023-03-18T13:04:29;18.30;80.50
1129;DHT22;553;51.038;7.216;2023-03-18T13:07:13;18.30;80.90
1129;DHT22;553;51.038;7.216;2023-03-18T13:10:02;18.40;80.20
1129;DHT22;553;51.038;7.216;2023-03-18T13:12:32;18.40;80.70
1129;DHT22;553;51.038;7.216;2023-03-18T13:17:50;18.50;80.50
1129;DHT22;553;51.038;7.216;2023-03-18T13:20:23;18.40;82.10
1129;DHT22;553;51.038;7.216;2023-03-18T13:23:15;18.00;82.10
1129;DHT22;553;51.038;7.216;2023-03-18T13:31:26;17.80;84.20
1129;DHT22;553;51.038;7.216;2023-03-18T13:37:12;17.80;83.80
1129;DHT22;553;51.038;7.216;2023-03-18T13:42:21;17.70;84.40
1129;DHT22;553;51.038;7.216;2023-03-18T13:44:59;17.60;83.90
1129;DHT22;553;51.038;7.216;2023-03-18T13:47:33;17.50;85.00
1129;DHT22;553;51.038;7.216;2023-03-18T13:50:04;17.60;85.40
1129;DHT22;553;51.038;7.216;2023-03-18T13:52:41;17.60;85.10
1129;DHT22;553;51.038;7.216;2023-03-18T14:00:37;17.40;87.50
1129;DHT22;553;51.038;7.216;2023-03-18T14:05:49;17.00;90.30
1129;DHT22;553;51.038;7.216;2023-03-18T14:08:45;16.90;90.90
1129;DHT22;553;51.038;7.216;2023-03-18T14:13:43;16.70;93.60
1129;DHT22;553;51.038;7.216;2023-03-18T14:16:12;16.70;94.70
1129;DHT22;553;51.038;7.216;2023-03-18T14:18:40;16.60;93.50
1129;DHT22;553;51.038;7.216;2023-03-18T14:21:22;16.40;96.70
1129;DHT22;553;51.038;7.216;2023-03-18T14:26:45;16.40;99.00
1129;DHT22;553;51.038;7.216;2023-03-18T14:29:42;16.40;98.50
1129;DHT22;553;51.038;7.216;2023-03-18T14:38:00;16.30;98.70
1129;DHT22;553;51.038;7.216;2023-03-18T14:40:34;16.10;99.60
1129;DHT22;553;51.038;7.216;2023-03-18T14:43:07;16.10;99.90
1129;DHT22;553;51.038;7.216;2023-03-18T14:45:39;16.00;99.90
1129;DHT22;553;51.038;7.216;2023-03-18T14:48:30;16.00;99.90
1129;DHT22;553;51.038;7.216;2023-03-18T14:51:18;15.90;99.90
1129;DHT22;553;51.038;7.216;2023-03-18T14:56:20;16.20;99.90
1129;DHT22;553;51.038;7.216;2023-03-18T14:58:50;15.90;99.90
1129;DHT22;553;51.038;7.216;2023-03-18T15:01:22;15.90;99.90
1129;DHT22;553;51.038;7.216;2023-03-18T15:03:51;15.80;99.90
1129;DHT22;553;51.038;7.216;2023-03-18T15:06:23;15.70;99.90
1129;DHT22;553;51.038;7.216;2023-03-18T15:09:05;15.70;99.90
1129;DHT22;553;51.038;7.216;2023-03-18T15:11:38;15.80;99.90
1129;DHT22;553;51.038;7.216;2023-03-18T15:14:27;15.70;99.90
1129;DHT22;553;51.038;7.216;2023-03-18T15:16:59;15.90;99.90
1129;DHT22;553;51.038;7.216;2023-03-18T15:19:27;15.90;99.90
1129;DHT22;553;51.038;7.216;2023-03-18T15:21:56;15.90;99.90
1129;DHT22;553;51.038;7.216;2023-03-18T15:24:25;16.00;99.90
1129;DHT22;553;51.038;7.216;2023-03-18T15:27:03;16.20;99.90
1129;DHT22;553;51.038;7.216;2023-03-18T15:29:32;16.30;99.90
1129;DHT22;553;51.038;7.216;2023-03-18T15:34:54;16.20;99.90
1129;DHT22;553;51.038;7.216;2023-03-18T15:37:37;16.30;99.90
1129;DHT22;553;51.038;7.216;2023-03-18T15:40:28;16.30;99.90
1129;DHT22;553;51.038;7.216;2023-03-18T15:45:40;16.30;99.90
1129;DHT22;553;51.038;7.216;2023-03-18T15:51:03;16.30;99.90
1129;DHT22;553;51.038;7.216;2023-03-18T15:56:18;16.30;98.50
1129;DHT22;553;51.038;7.216;2023-03-18T15:58:45;16.40;99.10
1129;DHT22;553;51.038;7.216;2023-03-18T16:01:16;16.40;99.10
1129;DHT22;553;51.038;7.216;2023-03-18T16:03:44;16.30;98.70
1129;DHT22;553;51.038;7.216;2023-03-18T16:06:13;16.40;98.50
1129;DHT22;553;51.038;7.216;2023-03-18T16:08:40;16.40;98.70
1129;DHT22;553;51.038;7.216;2023-03-18T16:11:09;16.50;98.30
1129;DHT22;553;51.038;7.216;2023-03-18T16:13:38;16.50;97.50
1129;DHT22;553;51.038;7.216;2023-03-18T16:16:05;16.50;96.80
1129;DHT22;553;51.038;7.216;2023-03-18T16:18:35;16.40;97.70
1129;DHT22;553;51.038;7.216;2023-03-18T16:21:01;16.30;98.50
1129;DHT22;553;51.038;7.216;2023-03-18T16:23:28;16.20;98.60
1129;DHT22;553;51.038;7.216;2023-03-18T16:25:55;16.00;98.20
1129;DHT22;553;51.038;7.216;2023-03-18T16:28:26;16.00;99.50
1129;DHT22;553;51.038;7.216;2023-03-18T16:30:53;16.00;99.00
1129;DHT22;553;51.038;7.216;2023-03-18T16:33:22;16.00;99.70
1129;DHT22;553;51.038;7.216;2023-03-18T16:35:56;16.10;99.80
1129;DHT22;553;51.038;7.216;2023-03-18T16:38:27;16.00;98.30
1129;DHT22;553;51.038;7.216;2023-03-18T16:40:55;16.00;99.50
1129;DHT22;553;51.038;7.216;2023-03-18T16:43:30;16.00;99.30
1129;DHT22;553;51.038;7.216;2023-03-18T16:46:01;16.10;98.50
1129;DHT22;553;51.038;7.216;2023-03-18T16:48:31;16.00;97.70
1129;DHT22;553;51.038;7.216;2023-03-18T16:50:58;16.30;96.10
1129;DHT22;553;51.038;7.216;2023-03-18T16:53:29;16.40;96.90
1129;DHT22;553;51.038;7.216;2023-03-18T16:56:00;16.20;97.10
1129;DHT22;553;51.038;7.216;2023-03-18T16:58:34;16.00;97.50
1129;DHT22;553;51.038;7.216;2023-03-18T17:01:03;16.00;96.80
1129;DHT22;553;51.038;7.216;2023-03-18T17:03:32;16.00;96.50
1129;DHT22;553;51.038;7.216;2023-03-18T17:06:00;16.00;95.80
1129;DHT22;553;51.038;7.216;2023-03-18T17:08:27;15.90;94.60
1129;DHT22;553;51.038;7.216;2023-03-18T17:10:55;15.80;94.10
1129;DHT22;553;51.038;7.216;2023-03-18T17:13:26;15.80;94.10
1129;DHT22;553;51.038;7.216;2023-03-18T17:15:55;15.70;94.00
1129;DHT22;553;51.038;7.216;2023-03-18T17:18:23;15.60;93.50
1129;DHT22;553;51.038;7.216;2023-03-18T17:20:50;15.50;92.90
1129;DHT22;553;51.038;7.216;2023-03-18T17:23:22;15.50;92.60
1129;DHT22;553;51.038;7.216;2023-03-18T17:25:54;15.60;92.60
1129;DHT22;553;51.038;7.216;2023-03-18T17:28:37;15.50;92.80
1129;DHT22;553;51.038;7.216;2023-03-18T17:31:04;15.40;93.20
1129;DHT22;553;51.038;7.216;2023-03-18T17:33:33;15.40;92.80
1129;DHT22;553;51.038;7.216;2023-03-18T17:36:01;15.40;92.40
1129;DHT22;553;51.038;7.216;2023-03-18T17:38:28;15.40;91.80
1129;DHT22;553;51.038;7.216;2023-03-18T17:41:01;15.30;91.60
1129;DHT22;553;51.038;7.216;2023-03-18T17:43:34;15.30;91.20
1129;DHT22;553;51.038;7.216;2023-03-18T17:46:02;15.30;91.20
1129;DHT22;553;51.038;7.216;2023-03-18T17:48:34;15.30;90.70
1129;DHT22;553;51.038;7.216;2023-03-18T17:51:14;15.20;91.00
1129;DHT22;553;51.038;7.216;2023-03-18T17:53:46;15.80;88.70
1129;DHT22;553;51.038;7.216;2023-03-18T17:56:16;15.60;88.70
1129;DHT22;553;51.038;7.216;2023-03-18T17:58:47;15.40;89.20
1129;DHT22;553;51.038;7.216;2023-03-18T18:01:25;15.30;89.60
1129;DHT22;553;51.038;7.216;2023-03-18T18:03:53;15.20;89.50
1129;DHT22;553;51.038;7.216;2023-03-18T18:06:26;14.90;91.00
1129;DHT22;553;51.038;7.216;2023-03-18T18:08:55;14.80;91.80
1129;DHT22;553;51.038;7.216;2023-03-18T18:11:32;14.80;93.40
1129;DHT22;553;51.038;7.216;2023-03-18T18:14:10;14.80;94.70
1129;DHT22;553;51.038;7.216;2023-03-18T18:16:37;14.70;94.60
1129;DHT22;553;51.038;7.216;2023-03-18T18:19:04;14.60;93.70
1129;DHT22;553;51.038;7.216;2023-03-18T18:21:30;14.50;95.40
1129;DHT22;553;51.038;7.216;2023-03-18T18:23:57;14.40;97.00
1129;DHT22;553;51.038;7.216;2023-03-18T18:26:24;14.20;97.10
1129;DHT22;553;51.038;7.216;2023-03-18T18:28:51;14.10;93.60
1129;DHT22;553;51.038;7.216;2023-03-18T18:31:19;14.10;92.50
1129;DHT22;553;51.038;7.216;2023-03-18T18:33:47;14.10;91.50
1129;DHT22;553;51.038;7.216;2023-03-18T18:36:15;14.20;91.30
1129;DHT22;553;51.038;7.216;2023-03-18T18:38:43;14.20;91.20